createdAt,value
2018-08-30T00:00:45.702Z,14.10
2018-08-30T00:03:15.085Z,13.93
2018-08-30T00:05:44.258Z,13.47
2018-08-30T00:08:13.479Z,14.20
2018-08-30T00:10:42.102Z,16.17
2018-08-30T00:13:10.780Z,15.63
2018-08-30T00:15:39.416Z,14.10
2018-08-30T00:18:08.034Z,17.17
2018-08-30T00:20:36.658Z,16.50
2018-08-30T00:23:05.545Z,17.40
2018-08-30T00:25:34.166Z,16.87
2018-08-30T00:28:02.784Z,18.57
2018-08-30T00:30:31.382Z,18.23
2018-08-30T00:33:00.016Z,18.00
2018-08-30T00:35:28.673Z,18.70
2018-08-30T00:37:57.322Z,17.93
2018-08-30T00:40:25.921Z,19.37
2018-08-30T00:42:54.588Z,19.50
2018-08-30T00:45:23.545Z,18.57
2018-08-30T00:47:52.167Z,19.90
2018-08-30T00:50:20.780Z,19.43
2018-08-30T00:52:49.396Z,20.30
2018-08-30T00:55:18.134Z,21.70
2018-08-30T00:57:46.731Z,20.87
2018-08-30T01:00:21.773Z,21.87
2018-08-30T01:02:50.436Z,23.33
2018-08-30T01:22:37.639Z,26.43
2018-08-30T01:25:06.402Z,25.00
2018-08-30T01:27:35.014Z,23.77
2018-08-30T01:30:03.635Z,26.43
2018-08-30T01:32:32.337Z,23.43
2018-08-30T01:35:00.945Z,25.47
2018-08-30T01:37:29.565Z,23.43
2018-08-30T01:39:58.134Z,23.20
2018-08-30T01:42:26.777Z,23.27
2018-08-30T01:44:55.424Z,22.23
2018-08-30T01:47:24.069Z,23.50
2018-08-30T01:49:52.789Z,23.63
2018-08-30T01:52:21.507Z,23.17
2018-08-30T01:54:50.048Z,24.37
2018-08-30T01:57:18.666Z,22.80
2018-08-30T01:59:47.265Z,24.67
2018-08-30T02:02:15.868Z,23.67
2018-08-30T02:04:59.039Z,23.57
2018-08-30T02:07:28.283Z,24.80
2018-08-30T02:09:56.896Z,24.80
2018-08-30T02:12:25.457Z,24.10
2018-08-30T02:14:54.119Z,24.50
2018-08-30T02:17:22.700Z,25.80
2018-08-30T02:19:51.336Z,25.53
2018-08-30T02:22:19.961Z,26.40
2018-08-30T02:24:49.543Z,24.97
2018-08-30T02:27:18.150Z,25.57
2018-08-30T02:29:46.792Z,24.77
2018-08-30T02:32:15.433Z,26.00
2018-08-30T02:34:44.046Z,24.77
2018-08-30T02:37:12.681Z,25.50
2018-08-30T02:39:41.366Z,23.80
2018-08-30T02:42:10.008Z,24.20
2018-08-30T02:44:38.657Z,22.30
2018-08-30T02:47:07.625Z,25.10
2018-08-30T02:49:36.283Z,23.53
2018-08-30T02:52:04.955Z,23.27
2018-08-30T02:54:33.742Z,22.20
2018-08-30T02:57:02.362Z,23.73
2018-08-30T02:59:30.970Z,23.43
2018-08-30T03:01:59.671Z,24.53
2018-08-30T03:04:28.284Z,23.30
2018-08-30T03:06:56.898Z,23.30
2018-08-30T03:09:25.992Z,23.27
2018-08-30T03:11:54.635Z,22.67
2018-08-30T03:14:23.286Z,20.63
2018-08-30T03:16:51.903Z,20.07
2018-08-30T03:39:50.193Z,23.13
2018-08-30T03:42:18.795Z,23.70
2018-08-30T03:44:47.481Z,22.87
2018-08-30T03:47:16.061Z,21.70
2018-08-30T03:49:44.677Z,24.07
2018-08-30T03:52:13.298Z,23.53
2018-08-30T03:54:41.934Z,23.40
2018-08-30T03:57:10.574Z,22.80
2018-08-30T03:59:39.184Z,23.60
2018-08-30T04:02:07.858Z,22.60
2018-08-30T04:04:36.468Z,22.20
2018-08-30T04:07:05.572Z,22.90
2018-08-30T04:09:34.180Z,21.13
2018-08-30T04:12:02.817Z,21.57
2018-08-30T04:14:31.465Z,21.07
2018-08-30T04:17:00.099Z,22.10
2018-08-30T04:19:28.690Z,21.13
2018-08-30T04:21:57.354Z,20.60
2018-08-30T04:24:25.982Z,19.90
2018-08-30T04:26:54.743Z,19.53
2018-08-30T04:29:23.337Z,18.53
2018-08-30T04:31:52.030Z,18.73
2018-08-30T04:34:20.636Z,18.23
2018-08-30T04:36:49.322Z,18.40
2018-08-30T04:39:17.928Z,19.27
2018-08-30T04:41:46.594Z,17.97
2018-08-30T04:44:15.280Z,19.67
2018-08-30T04:46:43.917Z,18.40
2018-08-30T04:49:13.177Z,17.43
2018-08-30T04:51:41.872Z,18.57
2018-08-30T04:54:10.566Z,19.40
2018-08-30T04:56:39.229Z,17.33
2018-08-30T04:59:07.849Z,20.57
2018-08-30T05:01:36.464Z,19.33
2018-08-30T05:04:05.379Z,19.03
2018-08-30T05:06:34.152Z,18.13
2018-08-30T05:09:02.963Z,18.27
2018-08-30T05:11:31.696Z,16.90
2018-08-30T05:14:00.326Z,17.93
2018-08-30T05:16:28.984Z,18.50
2018-08-30T05:18:57.613Z,18.00
2018-08-30T05:21:26.260Z,18.03
2018-08-30T05:23:54.915Z,18.83
2018-08-30T05:26:23.573Z,20.07
2018-08-30T05:28:52.242Z,17.60
2018-08-30T05:31:20.848Z,18.60
2018-08-30T05:33:49.576Z,17.77
2018-08-30T05:36:18.222Z,19.83
2018-08-30T05:38:46.904Z,17.83
2018-08-30T05:41:15.531Z,19.50
2018-08-30T05:43:44.213Z,17.40
2018-08-30T05:46:12.902Z,17.37
2018-08-30T05:48:41.507Z,16.63
2018-08-30T05:51:10.153Z,18.40
2018-08-30T05:53:38.756Z,17.07
2018-08-30T05:56:07.419Z,17.60
2018-08-30T05:58:36.090Z,17.13
2018-08-30T06:01:04.751Z,17.20
2018-08-30T06:03:33.357Z,17.97
2018-08-30T06:06:01.967Z,18.43
2018-08-30T06:08:30.630Z,18.10
2018-08-30T06:10:59.204Z,17.97
2018-08-30T06:13:27.833Z,18.87
2018-08-30T06:15:56.451Z,17.10
2018-08-30T06:18:25.092Z,18.07
2018-08-30T06:20:53.730Z,17.60
2018-08-30T06:23:22.377Z,17.60
2018-08-30T06:25:50.993Z,18.00
2018-08-30T06:28:19.698Z,17.97
2018-08-30T06:30:48.366Z,16.07
2018-08-30T06:33:17.052Z,16.40
2018-08-30T06:35:45.672Z,16.10
2018-08-30T06:38:14.293Z,15.87
2018-08-30T06:40:42.930Z,15.90
2018-08-30T06:43:11.580Z,16.40
2018-08-30T06:45:40.246Z,17.30
2018-08-30T06:48:08.941Z,17.10
2018-08-30T06:50:37.555Z,17.07
2018-08-30T06:53:06.368Z,16.60
2018-08-30T06:55:35.010Z,16.87
2018-08-30T06:58:03.674Z,16.80
2018-08-30T07:00:32.306Z,17.73
2018-08-30T07:03:00.975Z,16.83
2018-08-30T07:05:29.667Z,17.30
2018-08-30T07:07:58.384Z,16.37
2018-08-30T07:10:26.965Z,16.37
2018-08-30T07:12:55.572Z,16.80
2018-08-30T07:15:24.185Z,18.23
2018-08-30T07:17:52.856Z,17.27
2018-08-30T07:20:21.570Z,16.37
2018-08-30T07:22:50.222Z,15.20
2018-08-30T07:25:18.837Z,14.80
2018-08-30T07:27:47.466Z,14.10
2018-08-30T07:30:16.033Z,14.60
2018-08-30T07:32:44.670Z,14.40
2018-08-30T07:35:13.459Z,13.87
2018-08-30T07:37:41.954Z,14.00
2018-08-30T07:40:10.607Z,14.07
2018-08-30T07:42:39.216Z,13.37
2018-08-30T07:45:07.859Z,13.70
2018-08-30T07:47:36.465Z,13.10
2018-08-30T07:50:05.514Z,13.00
2018-08-30T07:52:34.103Z,15.47
2018-08-30T07:55:02.746Z,14.30
2018-08-30T07:57:31.407Z,15.17
2018-08-30T08:00:00.015Z,15.30
2018-08-30T08:02:28.607Z,14.70
2018-08-30T08:04:57.196Z,15.40
2018-08-30T08:07:25.905Z,15.10
2018-08-30T08:09:54.501Z,13.60
2018-08-30T08:12:23.081Z,14.40
2018-08-30T08:14:51.829Z,13.47
2018-08-30T08:17:20.438Z,12.80
2018-08-30T08:19:49.038Z,13.47
2018-08-30T08:22:17.664Z,13.27
2018-08-30T08:24:46.302Z,13.80
2018-08-30T08:27:14.845Z,15.03
2018-08-30T08:29:43.464Z,14.40
2018-08-30T08:32:12.076Z,14.97
2018-08-30T08:34:40.666Z,15.73
2018-08-30T08:37:09.411Z,15.60
2018-08-30T08:39:38.091Z,15.30
2018-08-30T08:42:06.691Z,15.60
2018-08-30T08:44:35.313Z,18.10
2018-08-30T08:47:04.009Z,16.17
2018-08-30T08:49:32.629Z,18.37
2018-08-30T08:52:01.234Z,16.27
2018-08-30T08:54:29.845Z,16.70
2018-08-30T08:56:58.457Z,16.87
2018-08-30T08:59:27.078Z,16.20
2018-08-30T09:01:55.716Z,15.27
2018-08-30T09:04:24.337Z,15.30
2018-08-30T09:06:52.964Z,14.63
2018-08-30T09:09:21.573Z,12.23
2018-08-30T09:11:50.198Z,13.33
2018-08-30T09:14:18.894Z,12.83
2018-08-30T09:16:47.491Z,12.20
2018-08-30T09:19:16.117Z,12.73
2018-08-30T09:24:38.358Z,12.17
2018-08-30T09:27:07.095Z,12.00
2018-08-30T09:29:35.823Z,12.60
2018-08-30T09:32:04.584Z,11.97
2018-08-30T09:34:33.286Z,12.20
2018-08-30T09:37:02.043Z,12.57
2018-08-30T09:39:30.713Z,12.10
2018-08-30T09:41:59.367Z,12.67
2018-08-30T09:44:28.090Z,13.47
2018-08-30T09:46:56.750Z,14.37
2018-08-30T09:49:25.500Z,16.10
2018-08-30T09:51:54.152Z,16.07
2018-08-30T09:54:22.896Z,17.07
2018-08-30T09:56:51.584Z,15.50
2018-08-30T09:59:20.228Z,17.33
2018-08-30T10:01:50.973Z,16.20
2018-08-30T10:04:20.461Z,15.93
2018-08-30T10:06:49.130Z,16.20
2018-08-30T10:09:17.834Z,16.10
2018-08-30T10:11:46.513Z,16.27
2018-08-30T10:14:15.203Z,16.30
2018-08-30T10:16:43.850Z,15.47
2018-08-30T10:19:12.778Z,15.77
2018-08-30T10:21:41.553Z,16.10
2018-08-30T10:24:10.263Z,16.13
2018-08-30T10:26:39.036Z,16.40
2018-08-30T10:29:08.213Z,13.07
2018-08-30T10:31:36.944Z,9.60
2018-08-30T10:34:05.849Z,10.50
2018-08-30T10:36:34.552Z,9.13
2018-08-30T10:39:03.371Z,9.67
2018-08-30T10:41:32.037Z,7.30
2018-08-30T10:44:00.808Z,6.80
2018-08-30T10:46:29.510Z,5.83
2018-08-30T10:48:58.176Z,6.70
2018-08-30T10:51:26.911Z,6.50
2018-08-30T10:53:55.564Z,7.20
2018-08-30T10:56:24.389Z,6.90
2018-08-30T10:58:53.050Z,6.07
2018-08-30T11:01:21.763Z,6.20
2018-08-30T11:03:50.584Z,5.80
2018-08-30T11:06:19.433Z,5.77
2018-08-30T11:08:48.129Z,6.03
2018-08-30T11:11:16.809Z,6.13
2018-08-30T11:13:45.685Z,5.53
2018-08-30T11:16:14.374Z,5.37
2018-08-30T11:18:43.110Z,5.90
2018-08-30T11:21:11.838Z,5.90
2018-08-30T11:23:40.505Z,6.80
2018-08-30T11:26:09.288Z,5.93
2018-08-30T11:28:37.992Z,6.10
2018-08-30T11:31:06.781Z,6.57
2018-08-30T11:33:35.460Z,7.50
2018-08-30T11:36:04.185Z,7.97
2018-08-30T11:38:32.901Z,7.83
2018-08-30T11:41:01.630Z,9.20
2018-08-30T13:52:55.578Z,10.60
2018-08-30T13:55:24.403Z,11.00
2018-08-30T13:57:53.320Z,11.40
2018-08-30T14:00:22.059Z,11.10
2018-08-30T14:02:50.459Z,11.57
2018-08-30T14:05:19.066Z,11.40
2018-08-30T14:07:47.672Z,11.03
2018-08-30T14:10:16.352Z,9.63
2018-08-30T14:12:45.204Z,11.17
2018-08-30T14:15:13.974Z,10.97
2018-08-30T14:17:42.216Z,10.00
2018-08-30T14:20:10.885Z,10.60
2018-08-30T14:22:39.570Z,11.07
2018-08-30T14:25:08.224Z,9.80
2018-08-30T14:27:36.893Z,11.70
2018-08-30T14:30:05.569Z,9.60
2018-08-30T14:32:34.251Z,10.50
2018-08-30T14:35:02.889Z,8.27
2018-08-30T14:37:31.541Z,10.57
2018-08-30T14:40:00.377Z,10.00
2018-08-30T14:42:29.036Z,9.93
2018-08-30T14:44:57.693Z,9.93
2018-08-30T14:47:26.502Z,9.90
2018-08-30T14:49:54.976Z,10.27
2018-08-30T14:52:23.628Z,8.70
2018-08-30T14:54:52.252Z,8.23
2018-08-30T14:57:20.915Z,8.63
2018-08-30T14:59:49.499Z,8.80
2018-08-30T15:02:18.150Z,8.23
2018-08-30T15:04:46.761Z,8.10
2018-08-30T15:07:15.397Z,6.93
2018-08-30T15:09:44.023Z,7.10
2018-08-30T15:12:12.689Z,7.53
2018-08-30T15:14:41.296Z,7.23
2018-08-30T15:17:10.026Z,7.53
2018-08-30T15:19:38.570Z,7.13
2018-08-30T15:22:07.276Z,6.87
2018-08-30T15:24:35.874Z,6.23
2018-08-30T15:27:04.636Z,6.37
2018-08-30T15:29:33.183Z,6.90
2018-08-30T15:32:01.815Z,6.90
2018-08-30T15:34:30.499Z,6.50
2018-08-30T15:36:59.175Z,6.77
2018-08-30T15:39:27.856Z,6.20
2018-08-30T15:41:56.490Z,6.70
2018-08-30T15:44:25.133Z,6.83
2018-08-30T15:46:53.785Z,6.30
2018-08-30T15:49:22.454Z,6.23
2018-08-30T15:51:51.054Z,7.00
2018-08-30T15:54:19.701Z,6.97
2018-08-30T15:56:48.318Z,6.90
2018-08-30T15:59:17.016Z,6.97
2018-08-30T16:01:45.682Z,6.83
2018-08-30T16:04:14.357Z,6.93
2018-08-30T16:06:43.095Z,6.80
2018-08-30T16:09:12.697Z,6.23
2018-08-30T16:11:41.777Z,6.67
2018-08-30T16:14:10.437Z,7.87
2018-08-30T16:16:39.103Z,7.53
2018-08-30T16:19:07.746Z,7.73
2018-08-30T16:21:36.428Z,6.70
2018-08-30T16:24:05.062Z,7.00
2018-08-30T16:26:33.689Z,6.20
2018-08-30T16:29:02.405Z,6.90
2018-08-30T16:31:31.036Z,7.60
2018-08-30T16:33:59.687Z,6.47
2018-08-30T16:36:28.321Z,6.83
2018-08-30T16:38:56.965Z,7.30
2018-08-30T16:41:25.659Z,8.03
2018-08-30T16:43:54.290Z,7.03
2018-08-30T16:46:22.922Z,6.87
2018-08-30T16:48:51.675Z,7.27
2018-08-30T16:51:20.268Z,7.17
2018-08-30T16:53:48.943Z,7.17
2018-08-30T16:56:17.629Z,7.40
2018-08-30T16:58:46.269Z,6.80
2018-08-30T17:01:14.892Z,7.73
2018-08-30T17:03:43.550Z,10.63
2018-08-30T17:06:12.182Z,8.57
2018-08-30T17:08:40.927Z,8.23
2018-08-30T17:11:09.543Z,10.03
2018-08-30T17:13:38.345Z,7.40
2018-08-30T17:16:06.963Z,8.03
2018-08-30T17:18:35.631Z,9.03
2018-08-30T17:21:04.339Z,7.40
2018-08-30T17:23:32.977Z,9.83
2018-08-30T17:26:01.617Z,9.17
2018-08-30T17:28:30.258Z,8.90
2018-08-30T17:30:58.977Z,9.87
2018-08-30T17:33:27.616Z,7.33
2018-08-30T17:35:56.256Z,8.60
2018-08-30T17:38:24.999Z,9.83
2018-08-30T17:40:53.668Z,8.33
2018-08-30T17:43:22.292Z,10.30
2018-08-30T17:45:51.337Z,9.67
2018-08-30T17:48:19.911Z,9.80
2018-08-30T17:50:48.722Z,10.30
2018-08-30T17:53:17.318Z,9.30
2018-08-30T17:55:46.036Z,10.30
2018-08-30T17:58:14.792Z,9.50
2018-08-30T18:00:43.578Z,8.30
2018-08-30T18:03:12.265Z,10.50
2018-08-30T18:05:41.018Z,8.93
2018-08-30T18:08:09.629Z,10.60
2018-08-30T18:10:38.262Z,9.93
2018-08-30T18:13:06.915Z,9.00
2018-08-30T18:15:35.555Z,10.33
2018-08-30T18:18:04.271Z,11.13
2018-08-30T18:20:32.905Z,10.23
2018-08-30T18:23:01.541Z,10.33
2018-08-30T18:25:30.241Z,11.50
2018-08-30T18:28:00.156Z,11.50
2018-08-30T18:30:28.874Z,12.23
2018-08-30T18:32:57.570Z,11.27
2018-08-30T18:35:26.245Z,12.97
2018-08-30T18:37:54.874Z,12.67
2018-08-30T18:40:23.537Z,12.10
2018-08-30T18:42:52.217Z,12.70
2018-08-30T18:45:20.857Z,12.77
2018-08-30T18:47:49.501Z,11.27
2018-08-30T18:50:18.114Z,9.50
2018-08-30T18:52:46.725Z,11.60
2018-08-30T18:55:15.457Z,10.37
2018-08-30T18:57:44.078Z,10.17
2018-08-30T19:00:12.708Z,9.83
2018-08-30T19:02:41.435Z,10.40
2018-08-30T19:05:10.073Z,9.40
2018-08-30T19:07:38.706Z,9.93
2018-08-30T19:10:07.442Z,11.70
2018-08-30T19:12:36.164Z,10.30
2018-08-30T19:15:10.127Z,9.07
2018-08-30T19:17:44.177Z,10.60
2018-08-30T19:20:12.895Z,12.40
2018-08-30T19:22:41.756Z,13.00
2018-08-30T19:25:13.820Z,10.93
2018-08-30T19:27:43.297Z,11.23
2018-08-30T19:30:17.224Z,12.70
2018-08-30T19:32:45.835Z,9.77
2018-08-30T19:35:21.316Z,12.20
2018-08-30T19:37:51.665Z,9.80
2018-08-30T19:40:27.115Z,11.67
2018-08-30T19:43:00.444Z,10.70
2018-08-30T19:45:29.979Z,11.33
2018-08-30T19:47:59.161Z,11.40
2018-08-30T19:50:28.526Z,11.77
2018-08-30T19:52:57.273Z,10.33
2018-08-30T19:55:25.913Z,10.83
2018-08-30T19:57:54.528Z,12.67
2018-08-30T20:00:23.496Z,11.00
2018-08-30T20:02:52.282Z,11.20
2018-08-30T20:05:20.990Z,10.00
2018-08-30T20:07:49.612Z,9.60
2018-08-30T20:10:18.296Z,10.67
2018-08-30T20:12:47.073Z,9.50
2018-08-30T20:15:15.691Z,9.67
2018-08-30T20:17:44.313Z,9.30
2018-08-30T20:20:12.903Z,8.70
2018-08-30T20:22:41.662Z,10.63
2018-08-30T20:25:10.288Z,9.93
2018-08-30T20:27:38.946Z,8.77
2018-08-30T20:30:07.625Z,9.60
2018-08-30T20:32:36.318Z,8.67
2018-08-30T20:35:05.050Z,9.40
2018-08-30T20:37:33.777Z,9.33
2018-08-30T20:40:02.417Z,9.60
2018-08-30T20:42:31.142Z,9.67
2018-08-30T20:44:59.785Z,8.50
2018-08-30T20:47:28.404Z,8.23
2018-08-30T20:49:57.092Z,8.40
2018-08-30T20:52:25.798Z,8.87
2018-08-30T20:54:54.415Z,7.47
2018-08-30T20:57:23.032Z,6.77
2018-08-30T20:59:51.740Z,8.63
2018-08-30T21:02:20.425Z,8.03
2018-08-30T21:04:49.000Z,7.03
2018-08-30T21:07:17.696Z,8.70
2018-08-30T21:09:46.314Z,7.40
2018-08-30T21:12:14.965Z,7.57
2018-08-30T21:14:43.654Z,8.77
2018-08-30T21:17:12.294Z,6.70
2018-08-30T21:19:41.181Z,7.50
2018-08-30T21:22:09.934Z,6.90
2018-08-30T21:24:38.557Z,7.27
2018-08-30T21:27:07.273Z,9.03
2018-08-30T21:29:35.933Z,7.57
2018-08-30T21:32:04.659Z,7.30
2018-08-30T21:34:33.278Z,7.20
2018-08-30T21:37:01.966Z,6.53
2018-08-30T21:39:30.585Z,8.20
2018-08-30T21:41:59.213Z,7.37
2018-08-30T21:44:27.886Z,7.47
2018-08-30T21:46:56.602Z,7.83
2018-08-30T21:49:25.333Z,6.30
2018-08-30T21:51:54.050Z,8.10
2018-08-30T21:54:22.697Z,7.40
2018-08-30T21:56:51.420Z,7.20
2018-08-30T21:59:20.070Z,8.27
2018-08-30T22:01:48.691Z,8.03
2018-08-30T22:04:17.389Z,6.50
2018-08-30T22:06:46.007Z,8.23
2018-08-30T22:09:14.687Z,6.33
2018-08-30T22:11:43.680Z,9.97
2018-08-30T22:14:12.512Z,8.60
2018-08-30T22:16:41.143Z,8.50
2018-08-30T22:19:09.800Z,6.40
2018-08-30T22:21:38.461Z,6.63
2018-08-30T22:24:07.121Z,6.90
2018-08-30T22:26:35.736Z,7.00
2018-08-30T22:29:04.450Z,6.97
2018-08-30T22:31:33.103Z,7.00
2018-08-30T22:34:01.745Z,7.67
2018-08-30T22:36:30.386Z,6.70
2018-08-30T22:38:59.045Z,7.30
2018-08-30T22:41:27.789Z,8.30
2018-08-30T22:43:56.459Z,5.57
2018-08-30T22:46:25.124Z,7.00
2018-08-30T22:48:53.784Z,6.23
2018-08-30T22:51:22.406Z,6.80
2018-08-30T22:53:51.072Z,6.87
2018-08-30T22:56:19.697Z,7.13
2018-08-30T22:58:48.345Z,6.40
2018-08-30T23:01:16.960Z,6.27
2018-08-30T23:03:45.621Z,6.50
2018-08-30T23:06:14.312Z,7.20
2018-08-30T23:08:43.018Z,6.50
2018-08-30T23:11:11.676Z,6.30
2018-08-30T23:13:40.332Z,6.47
2018-08-30T23:16:09.004Z,6.47
2018-08-30T23:18:37.677Z,6.20
2018-08-30T23:21:06.533Z,6.30
2018-08-30T23:23:35.225Z,6.53
2018-08-30T23:26:03.866Z,5.60
2018-08-30T23:28:32.512Z,5.73
2018-08-30T23:31:01.158Z,6.20
2018-08-30T23:33:29.813Z,5.50
2018-08-30T23:35:58.471Z,5.53
2018-08-30T23:38:27.170Z,5.83
2018-08-30T23:40:55.820Z,6.00
2018-08-30T23:43:24.477Z,6.43
2018-08-30T23:45:53.098Z,5.67
2018-08-30T23:48:21.756Z,5.60
2018-08-30T23:50:50.385Z,5.90
2018-08-30T23:53:19.016Z,4.87
2018-08-30T23:55:47.661Z,5.33
2018-08-30T23:58:27.520Z,5.03
